Main page
METAR-TAF:

METAR-TAF

Airports :

Glasgow-Prestwick, Scotland

Glasgow Prestwick Airport

latitude: 55-30N, longitude: 004-35W, elevation: 20 m

Current weather observation

The report was made 52 minutes ago, at 01:50 UTC
Calm wind
Temperature 13°C
Humidity 88%
Pressure 1017 hPa
Visibility 10 km or more
Few clouds at a height of 4300 ft

METAR: EGPK 240150Z 00000KT 9999 FEW043 13/11 Q1017

Time: 03:42 (02:42 UTC)

Forecast

The report was made 3 hours and 45 minutes ago, at 22:57 UTC
Forecast valid from 24 at 00 UTC to 24 at 24 UTC
Wind 5 kt from the West/Northwest
Visibility 10 km or more
Few clouds at a height of 4000 ft

TAF: EGPK 232257Z 2400/2424 30005KT 9999 FEW040

Weather observations and forecasts of more than 4000 airports (METAR and TAF reports).

The available stations are represented by yellow and red dots on the map.

Hover mouse over dot to see the name of the station.

Then click to see weather observations and forecasts.

To change the map : click on the green buttons with a black cross to zoom in, on the green button with a dash to zoom out, or on the green arrows for adjacent maps.


METAR-TAF: